Time;durP1;ratioP1;P1;durP2;ratioP2;P2;SDS_P1;SDS_P2;PMS_P1;PMS_P2;Temp;Humidity;BMP_temperature;BMP_pressure;BME280_temperature;BME280_humidity;BME280_pressure;Samples;Min_cycle;Max_cycle;Signal;HPM_P1;HPM_P2
2023/03/01 00:01:40;;;;;;;20.75;13.88;;;;;;;0.94;56.48;97346.56;5035405;28;20515;-80
2023/03/01 00:04:08;;;;;;;20.08;13.60;;;;;;;0.99;56.94;97354.81;5030016;23;20774;-77
2023/03/01 00:06:36;;;;;;;21.95;14.93;;;;;;;0.98;56.53;97355.72;5017632;28;20052;-76
2023/03/01 00:09:05;;;;;;;22.17;13.35;;;;;;;0.95;56.61;97356.75;5016655;28;20065;-77
2023/03/01 00:11:34;;;;;;;21.85;12.95;;;;;;;0.93;56.35;97355.22;5016839;28;20200;-77
2023/03/01 00:14:04;;;;;;;20.02;12.75;;;;;;;0.89;56.65;97351.19;5012250;28;20056;-76
2023/03/01 00:16:34;;;;;;;21.35;12.75;;;;;;;0.87;56.77;97363.31;4996970;28;20050;-76
2023/03/01 00:19:02;;;;;;;22.25;13.13;;;;;;;0.86;56.88;97359.94;4996858;28;20053;-76
2023/03/01 00:21:29;;;;;;;24.00;14.38;;;;;;;0.84;56.94;97363.53;4997295;28;20061;-77
2023/03/01 00:23:58;;;;;;;22.17;13.65;;;;;;;0.86;58.25;97357.38;4997364;28;20096;-76
2023/03/01 00:26:27;;;;;;;21.35;14.02;;;;;;;0.92;57.76;97354.41;4997315;28;20405;-77
2023/03/01 00:28:57;;;;;;;20.90;13.65;;;;;;;0.96;57.76;97350.69;4996303;28;20526;-76
2023/03/01 00:31:27;;;;;;;20.67;13.60;;;;;;;0.99;58.15;97352.25;4997173;28;20058;-77
2023/03/01 00:33:56;;;;;;;21.00;14.35;;;;;;;0.99;57.54;97347.91;4997180;28;20575;-77
2023/03/01 00:36:26;;;;;;;23.70;14.88;;;;;;;0.97;57.43;97348.94;4997044;28;20054;-77
2023/03/01 00:38:54;;;;;;;22.48;14.48;;;;;;;0.92;57.19;97345.84;4996375;28;20496;-77
2023/03/01 00:41:23;;;;;;;21.80;13.80;;;;;;;0.88;57.36;97349.56;4997010;28;20189;-77
2023/03/01 00:43:52;;;;;;;22.75;13.48;;;;;;;0.90;57.99;97347.72;4997149;28;20500;-77
2023/03/01 00:46:23;;;;;;;23.77;13.43;;;;;;;0.92;57.36;97343.28;4996462;28;20110;-76
2023/03/01 00:48:51;;;;;;;23.67;14.15;;;;;;;0.90;57.52;97342.59;4996859;28;20050;-76
2023/03/01 00:51:21;;;;;;;21.52;13.82;;;;;;;0.90;57.75;97347.72;4997334;28;20053;-76
2023/03/01 00:53:51;;;;;;;22.70;13.57;;;;;;;0.92;57.84;97350.97;4996544;28;20516;-77
2023/03/01 00:56:20;;;;;;;18.73;13.13;;;;;;;0.99;58.39;97347.91;4996700;28;20051;-77
2023/03/01 00:58:47;;;;;;;21.42;13.93;;;;;;;1.05;57.67;97354.41;4996037;28;20050;-77
2023/03/01 01:01:19;;;;;;;23.20;13.82;;;;;;;1.05;57.67;97353.56;5004053;28;20086;-76
2023/03/01 01:03:48;;;;;;;23.75;13.32;;;;;;;1.01;56.99;97355.53;5009390;28;20048;-77
2023/03/01 01:06:17;;;;;;;24.10;14.93;;;;;;;1.00;57.54;97353.88;5000329;28;20051;-77
2023/03/01 01:08:45;;;;;;;24.88;14.23;;;;;;;0.99;57.47;97341.97;4996261;28;20053;-77
2023/03/01 01:11:13;;;;;;;23.55;16.08;;;;;;;1.01;57.53;97340.09;4997373;28;20047;-77
2023/03/01 01:13:41;;;;;;;19.40;12.93;;;;;;;1.03;57.33;97339.06;4996616;28;20058;-77
2023/03/01 01:16:09;;;;;;;26.02;14.95;;;;;;;1.01;57.54;97340.09;4996791;28;20436;-76
2023/03/01 01:18:38;;;;;;;24.75;14.75;;;;;;;0.95;57.41;97341.34;4995573;28;20054;-77
2023/03/01 01:21:08;;;;;;;26.33;15.60;;;;;;;0.90;57.29;97334.88;4996258;28;20560;-76
2023/03/01 01:23:35;;;;;;;23.17;14.80;;;;;;;0.81;57.51;97331.19;4996193;28;20531;-77
2023/03/01 01:26:08;;;;;;;22.33;14.20;;;;;;;0.79;58.52;97325.31;4996768;28;20064;-77
2023/03/01 01:28:36;;;;;;;26.08;15.05;;;;;;;0.77;57.79;97324.59;4995456;28;20086;-77
2023/03/01 01:31:04;;;;;;;22.42;13.70;;;;;;;0.71;57.61;97328.38;4996537;28;20460;-77
2023/03/01 01:33:31;;;;;;;23.73;14.60;;;;;;;0.69;58.06;97324.28;4996176;28;20202;-76
2023/03/01 01:36:00;;;;;;;21.92;14.35;;;;;;;0.66;57.99;97317.63;4996564;28;20471;-77
2023/03/01 01:38:28;;;;;;;27.55;15.93;;;;;;;0.65;58.02;97315.13;4995227;28;20061;-77
2023/03/01 01:40:56;;;;;;;19.33;13.48;;;;;;;0.65;58.15;97310.81;4995908;28;20094;-77
2023/03/01 01:43:25;;;;;;;25.98;15.43;;;;;;;0.65;58.59;97307.44;4996431;28;20421;-77
2023/03/01 01:45:57;;;;;;;26.10;15.00;;;;;;;0.66;58.64;97298.81;4996233;28;20050;-77
2023/03/01 01:48:40;;;;;;;23.23;13.88;;;;;;;0.65;58.50;97303.13;4994727;28;20097;-77
2023/03/01 01:51:14;;;;;;;22.30;14.23;;;;;;;0.66;58.46;97301.41;4995753;28;20050;-77
2023/03/01 01:53:46;;;;;;;21.15;14.35;;;;;;;0.66;58.51;97304.78;4995627;28;20460;-77
2023/03/01 01:56:17;;;;;;;22.35;14.23;;;;;;;0.60;58.59;97300.03;4995795;28;20138;-79
2023/03/01 01:58:47;;;;;;;23.60;14.75;;;;;;;0.58;58.42;97301.91;4992954;28;20054;-78
2023/03/01 02:01:15;;;;;;;25.73;15.32;;;;;;;0.58;58.76;97299.31;4994906;28;20185;-79
2023/03/01 02:03:45;;;;;;;20.30;14.80;;;;;;;0.59;58.80;97293.25;4994842;28;20050;-79
2023/03/01 02:06:20;;;;;;;20.92;14.48;;;;;;;0.62;58.73;97295.63;4994970;28;20085;-79
2023/03/01 02:08:50;;;;;;;26.13;14.93;;;;;;;0.62;58.37;97285.38;4993642;28;20523;-78
2023/03/01 02:11:19;;;;;;;22.80;14.32;;;;;;;0.61;58.33;97276.00;4994532;28;20050;-79
2023/03/01 02:13:48;;;;;;;23.25;14.38;;;;;;;0.59;58.51;97280.41;4994644;28;20137;-79
2023/03/01 02:16:17;;;;;;;22.75;14.82;;;;;;;0.59;58.93;97273.56;4994602;28;20137;-79
2023/03/01 02:18:45;;;;;;;22.58;14.82;;;;;;;0.59;58.87;97277.84;4993757;28;20063;-78
2023/03/01 02:21:30;;;;;;;22.67;15.18;;;;;;;0.60;60.26;97275.19;4994572;28;20421;-78
2023/03/01 02:24:03;;;;;;;23.17;14.75;;;;;;;0.64;58.83;97275.81;4994700;28;20089;-78
2023/03/01 02:26:38;;;;;;;24.88;15.35;;;;;;;0.61;58.59;97270.88;4994546;28;20050;-79
2023/03/01 02:29:08;;;;;;;25.65;15.93;;;;;;;0.57;58.68;97270.28;4993410;28;20089;-78
2023/03/01 02:31:44;;;;;;;24.25;15.60;;;;;;;0.54;58.75;97275.59;4994104;28;20137;-79
2023/03/01 02:34:15;;;;;;;26.70;15.88;;;;;;;0.50;59.13;97263.06;4994128;28;20468;-78
2023/03/01 02:36:47;;;;;;;24.63;15.52;;;;;;;0.52;59.30;97266.34;4994566;28;20137;-79
2023/03/01 02:39:17;;;;;;;27.30;15.65;;;;;;;0.55;59.31;97263.59;4993231;28;20050;-79
2023/03/01 02:41:48;;;;;;;25.00;15.20;;;;;;;0.60;59.12;97258.97;4994124;28;20058;-78
2023/03/01 02:44:17;;;;;;;23.92;14.77;;;;;;;0.63;59.13;97263.06;4993922;28;20054;-79
2023/03/01 02:46:47;;;;;;;24.70;14.50;;;;;;;0.67;59.22;97249.91;4994100;28;20522;-79
2023/03/01 02:49:25;;;;;;;23.13;15.38;;;;;;;0.72;59.59;97265.84;4993330;28;20050;-79
2023/03/01 02:52:20;;;;;;;25.05;15.40;;;;;;;0.74;59.80;97248.56;4993972;28;20054;-79
2023/03/01 02:54:53;;;;;;;25.90;16.13;;;;;;;0.77;58.90;97250.94;4993697;28;20491;-79
2023/03/01 02:57:22;;;;;;;26.33;15.48;;;;;;;0.78;58.78;97244.06;4993949;28;20452;-79
2023/03/01 02:59:53;;;;;;;27.10;16.77;;;;;;;0.81;58.95;97244.69;4993102;28;20050;-79
2023/03/01 03:02:35;;;;;;;25.67;16.38;;;;;;;0.85;58.55;97239.31;4993706;28;20060;-79
2023/03/01 03:05:09;;;;;;;26.60;14.85;;;;;;;0.86;58.55;97236.66;4993442;28;20089;-79
2023/03/01 03:07:39;;;;;;;26.02;16.17;;;;;;;0.85;58.24;97231.59;4993813;28;20050;-79
2023/03/01 03:10:11;;;;;;;26.48;15.70;;;;;;;0.81;58.53;97226.69;4993178;28;20069;-79
2023/03/01 03:12:38;;;;;;;27.27;15.75;;;;;;;0.79;58.31;97225.97;4993885;28;20423;-79
2023/03/01 03:15:12;;;;;;;27.05;15.63;;;;;;;0.80;58.84;97222.47;4993806;28;20056;-79
2023/03/01 03:17:41;;;;;;;26.30;16.52;;;;;;;0.82;58.92;97217.25;4993335;28;20134;-78
2023/03/01 03:20:18;;;;;;;20.77;14.63;;;;;;;0.85;58.81;97219.59;4993431;28;20455;-79
2023/03/01 03:22:47;;;;;;;28.48;16.40;;;;;;;0.84;58.58;97212.81;4994129;28;20077;-79
2023/03/01 03:25:15;;;;;;;24.77;15.88;;;;;;;0.84;58.49;97214.56;4994149;28;20129;-79
2023/03/01 03:27:44;;;;;;;24.67;15.02;;;;;;;0.84;58.66;97210.25;4994066;28;20050;-78
2023/03/01 03:30:16;;;;;;;24.65;15.20;;;;;;;0.83;58.34;97208.59;4994334;28;20053;-78
2023/03/01 03:32:51;;;;;;;23.88;15.55;;;;;;;0.86;58.65;97212.72;4993852;28;20145;-79
2023/03/01 03:35:20;;;;;;;23.33;14.23;;;;;;;0.86;58.38;97216.09;4993357;28;20279;-78
2023/03/01 03:38:03;;;;;;;24.45;15.40;;;;;;;0.87;58.68;97214.34;4992997;28;20085;-78
2023/03/01 03:40:33;;;;;;;25.42;15.48;;;;;;;0.89;58.66;97207.34;4993691;28;20137;-79
2023/03/01 03:43:01;;;;;;;26.05;16.17;;;;;;;0.91;58.41;97210.66;4994240;28;20073;-79
2023/03/01 03:45:32;;;;;;;25.98;15.23;;;;;;;0.91;58.63;97213.22;5010096;28;20062;-79
2023/03/01 03:48:00;;;;;;;22.83;14.20;;;;;;;0.91;58.44;97208.88;5005776;28;20078;-79
2023/03/01 03:50:29;;;;;;;23.92;15.23;;;;;;;0.93;58.33;97206.22;4994852;28;20081;-79
2023/03/01 03:52:56;;;;;;;24.90;16.08;;;;;;;0.89;58.19;97208.19;4993550;28;20050;-79
2023/03/01 03:55:27;;;;;;;24.65;14.98;;;;;;;0.86;58.58;97194.75;4993216;28;20054;-79
2023/03/01 03:58:01;;;;;;;26.00;15.68;;;;;;;0.85;58.81;97198.22;4993264;28;20054;-78
2023/03/01 04:00:30;;;;;;;24.70;16.10;;;;;;;0.87;58.32;97186.09;4993324;28;20054;-79
2023/03/01 04:02:58;;;;;;;24.08;15.80;;;;;;;0.88;58.57;97192.88;4993723;28;20077;-79
2023/03/01 04:05:26;;;;;;;22.70;14.80;;;;;;;0.86;58.65;97192.19;4993146;28;20058;-79
2023/03/01 04:08:00;;;;;;;25.38;16.42;;;;;;;0.87;58.64;97194.63;4992558;28;20479;-79
2023/03/01 04:10:29;;;;;;;25.42;15.52;;;;;;;0.89;58.51;97190.19;4993407;28;20050;-79
2023/03/01 04:12:57;;;;;;;23.27;15.13;;;;;;;0.92;58.62;97186.59;4993148;28;20436;-79
2023/03/01 04:15:26;;;;;;;24.73;15.95;;;;;;;0.94;58.62;97189.88;4992998;28;20412;-78
2023/03/01 04:17:56;;;;;;;22.35;14.85;;;;;;;0.94;58.49;97184.72;4992246;28;20137;-79
2023/03/01 04:20:26;;;;;;;30.23;15.95;;;;;;;0.97;58.41;97192.25;4993295;28;20432;-78
2023/03/01 04:22:58;;;;;;;24.58;15.70;;;;;;;0.99;58.79;97187.81;4995559;28;20137;-79
2023/03/01 04:25:26;;;;;;;25.55;15.30;;;;;;;1.01;58.59;97191.09;4996607;28;20050;-79
2023/03/01 04:27:53;;;;;;;23.83;15.50;;;;;;;1.01;58.52;97188.53;4995563;28;20110;-79
2023/03/01 04:30:25;;;;;;;24.42;15.70;;;;;;;1.01;58.51;97180.81;4996199;28;20050;-79
2023/03/01 04:32:52;;;;;;;27.90;16.83;;;;;;;1.00;58.56;97177.41;4996719;28;20097;-79
2023/03/01 04:35:21;;;;;;;28.65;16.27;;;;;;;1.00;58.92;97186.88;4996415;28;20054;-79
2023/03/01 04:37:50;;;;;;;29.20;16.58;;;;;;;1.02;58.66;97195.31;4996001;28;20149;-79
2023/03/01 04:40:18;;;;;;;26.25;17.25;;;;;;;1.00;58.47;97184.31;4996428;28;20133;-79
2023/03/01 04:42:46;;;;;;;25.27;16.33;;;;;;;0.96;58.72;97183.72;4996217;28;20058;-79
2023/03/01 04:45:14;;;;;;;26.00;16.60;;;;;;;0.93;58.58;97185.69;4996246;28;20420;-79
2023/03/01 04:47:44;;;;;;;23.80;15.85;;;;;;;0.91;58.79;97190.09;4996400;28;20141;-79
2023/03/01 04:50:14;;;;;;;25.90;16.05;;;;;;;0.88;58.75;97191.13;4996044;28;20050;-79
2023/03/01 04:52:43;;;;;;;27.52;16.42;;;;;;;0.87;59.03;97188.66;4996212;28;20050;-78
2023/03/01 04:55:12;;;;;;;27.15;15.73;;;;;;;0.90;59.46;97184.16;4996173;28;20583;-78
2023/03/01 04:57:40;;;;;;;22.55;15.15;;;;;;;0.95;59.38;97182.06;4995827;28;20500;-79
2023/03/01 05:00:20;;;;;;;25.05;15.90;;;;;;;0.95;58.87;97184.63;4995622;28;20053;-79
2023/03/01 05:02:52;;;;;;;27.70;15.88;;;;;;;0.97;58.70;97184.53;4995826;28;20108;-79
2023/03/01 05:05:28;;;;;;;22.08;15.02;;;;;;;0.99;59.07;97177.53;4995780;28;20050;-79
2023/03/01 05:07:59;;;;;;;23.73;15.20;;;;;;;1.01;58.80;97178.25;4995207;28;20056;-78
2023/03/01 05:10:29;;;;;;;24.50;15.65;;;;;;;0.99;58.46;97180.13;4995759;28;20070;-79
2023/03/01 05:12:58;;;;;;;23.35;14.25;;;;;;;0.98;58.50;97178.47;4995987;28;20720;-79
2023/03/01 05:15:27;;;;;;;25.70;16.48;;;;;;;1.01;58.56;97178.25;4995757;28;20546;-79
2023/03/01 05:17:58;;;;;;;27.48;15.15;;;;;;;0.98;58.67;97179.31;4994952;28;20050;-79
2023/03/01 05:20:26;;;;;;;27.08;16.55;;;;;;;0.96;58.68;97177.75;4996050;28;20054;-78
2023/03/01 05:22:56;;;;;;;24.88;15.90;;;;;;;0.92;58.88;97181.44;4995977;28;20090;-78
2023/03/01 05:25:26;;;;;;;26.00;15.68;;;;;;;0.91;58.81;97182.38;4995186;28;20508;-78
2023/03/01 05:27:53;;;;;;;27.02;16.63;;;;;;;0.92;59.16;97179.72;4984798;28;20051;-78
2023/03/01 05:30:21;;;;;;;28.35;16.83;;;;;;;0.91;59.04;97183.19;4976041;28;20047;-79
2023/03/01 05:32:55;;;;;;;26.40;16.35;;;;;;;0.89;59.06;97181.69;4976535;28;20057;-79
2023/03/01 05:35:24;;;;;;;31.23;17.58;;;;;;;0.82;59.07;97171.81;4987282;28;20138;-79
2023/03/01 05:37:52;;;;;;;26.65;17.25;;;;;;;0.80;59.13;97176.25;5011089;28;20031;-78
2023/03/01 05:40:21;;;;;;;27.75;16.63;;;;;;;0.77;59.45;97173.91;4998368;28;20031;-80
2023/03/01 05:42:53;;;;;;;25.88;16.30;;;;;;;0.74;59.67;97176.66;5003436;28;20046;-78
2023/03/01 05:45:22;;;;;;;27.33;15.77;;;;;;;0.73;59.36;97180.19;5004967;28;21066;-81
2023/03/01 05:47:50;;;;;;;29.77;17.85;;;;;;;0.67;59.59;97172.88;4978955;28;20485;-80
2023/03/01 05:50:20;;;;;;;30.15;16.27;;;;;;;0.64;59.75;97177.44;4989009;28;20421;-81
2023/03/01 05:52:49;;;;;;;26.10;15.38;;;;;;;0.58;59.66;97179.47;4993496;28;20074;-81
2023/03/01 05:55:17;;;;;;;25.33;16.15;;;;;;;0.49;59.52;97181.88;4987996;28;20050;-81
2023/03/01 05:57:45;;;;;;;27.95;16.05;;;;;;;0.40;59.74;97176.44;4994499;28;20042;-80
2023/03/01 06:00:16;;;;;;;27.10;16.58;;;;;;;0.29;60.36;97181.47;4993717;28;20060;-80
2023/03/01 06:02:44;;;;;;;28.85;16.92;;;;;;;0.20;60.19;97182.09;4981675;28;20054;-80
2023/03/01 06:05:13;;;;;;;26.17;15.95;;;;;;;0.16;60.54;97183.22;5011395;23;20050;-78
2023/03/01 06:07:42;;;;;;;31.60;17.05;;;;;;;0.15;60.64;97186.69;5014582;28;20415;-79
2023/03/01 06:10:11;;;;;;;28.35;16.90;;;;;;;0.14;60.72;97185.06;5014408;28;20051;-78
2023/03/01 06:12:40;;;;;;;27.98;16.55;;;;;;;0.11;60.80;97180.13;5014673;28;20073;-77
2023/03/01 06:15:10;;;;;;;29.60;16.92;;;;;;;0.06;60.84;97184.75;5026719;28;20110;-78
2023/03/01 06:17:42;;;;;;;32.20;17.95;;;;;;;0.05;61.07;97183.13;5007514;28;20053;-78
2023/03/01 06:20:12;;;;;;;;;;;;;;;0.06;61.44;97177.06;5008249;28;20034;-78
2023/03/01 06:22:40;;;;;;;24.38;14.65;;;;;;;0.03;60.71;97179.84;5012978;28;19993;-78
2023/03/01 06:25:08;;;;;;;30.00;18.10;;;;;;;-0.02;60.58;97175.81;5017019;28;20082;-78
2023/03/01 06:27:36;;;;;;;28.92;17.65;;;;;;;-0.07;60.46;97177.03;5014817;28;20109;-80
2023/03/01 06:30:05;;;;;;;29.13;17.92;;;;;;;-0.14;60.84;97180.94;5005603;28;20050;-80
2023/03/01 06:32:34;;;;;;;27.38;15.93;;;;;;;-0.16;60.78;97181.03;4999787;28;20129;-79
2023/03/01 06:35:03;;;;;;;26.73;16.48;;;;;;;-0.19;61.01;97183.81;4998329;28;20048;-78
2023/03/01 06:37:32;;;;;;;29.73;18.55;;;;;;;-0.20;61.25;97187.28;4993991;28;21427;-78
2023/03/01 06:39:59;;;;;;;27.00;16.80;;;;;;;-0.17;61.50;97187.09;4995389;28;20050;-77
2023/03/01 06:42:27;;;;;;;29.95;16.90;;;;;;;-0.10;61.20;97183.19;5004649;28;20049;-78
2023/03/01 06:44:54;;;;;;;27.67;17.05;;;;;;;-0.03;61.17;97179.28;5003721;28;20060;-77
2023/03/01 06:47:22;;;;;;;31.15;17.02;;;;;;;0.03;60.74;97183.22;4994965;28;20042;-77
2023/03/01 06:49:49;;;;;;;33.25;18.05;;;;;;;0.04;60.68;97171.19;4997993;28;20054;-78
2023/03/01 06:52:18;;;;;;;29.30;17.70;;;;;;;0.12;61.36;97176.66;4997762;28;20061;-78
2023/03/01 06:54:46;;;;;;;29.80;17.33;;;;;;;0.24;61.61;97175.00;5002504;28;20052;-78
2023/03/01 06:57:13;;;;;;;27.73;17.23;;;;;;;0.35;61.53;97175.94;5002682;28;20133;-78
2023/03/01 06:59:41;;;;;;;30.48;16.20;;;;;;;0.48;61.84;97177.63;5016183;28;20140;-78
2023/03/01 07:02:10;;;;;;;31.33;16.63;;;;;;;0.65;62.37;97176.50;4999579;28;20045;-78
2023/03/01 07:04:38;;;;;;;26.05;16.33;;;;;;;0.78;61.00;97183.22;5004174;28;20054;-78
2023/03/01 07:07:06;;;;;;;30.55;17.23;;;;;;;0.86;60.90;97176.75;5003166;28;20133;-79
2023/03/01 07:09:36;;;;;;;29.17;17.20;;;;;;;0.94;60.17;97177.03;5016900;28;20046;-79
2023/03/01 07:12:04;;;;;;;31.13;17.60;;;;;;;0.98;59.95;97175.88;5009520;28;20049;-78
2023/03/01 07:14:31;;;;;;;26.90;17.08;;;;;;;1.08;59.58;97174.31;5001201;28;20050;-78
2023/03/01 07:16:59;;;;;;;28.75;16.88;;;;;;;1.17;59.04;97171.09;4998058;28;20049;-78
2023/03/01 07:19:27;;;;;;;26.27;16.27;;;;;;;1.30;58.79;97175.38;4992359;28;20149;-78
2023/03/01 07:21:55;;;;;;;27.73;16.45;;;;;;;1.42;58.90;97166.75;4993929;28;20060;-79
2023/03/01 07:24:23;;;;;;;25.55;15.80;;;;;;;1.56;58.55;97170.91;4993374;28;20061;-78
2023/03/01 07:26:53;;;;;;;27.23;17.35;;;;;;;1.67;57.85;97157.28;4996892;28;20041;-79
2023/03/01 07:29:20;;;;;;;32.40;18.15;;;;;;;1.83;57.72;97165.50;4996130;28;20060;-80
2023/03/01 07:31:48;;;;;;;30.20;17.23;;;;;;;1.94;57.10;97154.41;5005376;28;20141;-79
2023/03/01 07:34:16;;;;;;;26.15;17.58;;;;;;;2.08;57.11;97150.81;5004731;28;20046;-80
2023/03/01 07:36:45;;;;;;;29.17;17.08;;;;;;;2.42;56.00;97149.88;4987033;28;20137;-80
2023/03/01 07:39:12;;;;;;;26.63;17.27;;;;;;;2.77;55.61;97148.13;5000015;28;20133;-80
2023/03/01 07:41:40;;;;;;;25.02;17.25;;;;;;;3.72;53.87;97151.69;4999546;28;20050;-79
2023/03/01 07:44:09;;;;;;;28.25;17.25;;;;;;;4.72;50.77;97150.25;4994684;28;20062;-79
2023/03/01 07:46:37;;;;;;;27.05;17.08;;;;;;;5.02;49.75;97149.38;5002136;28;20064;-79
2023/03/01 07:49:05;;;;;;;27.88;16.80;;;;;;;5.91;48.29;97151.03;5004982;28;20058;-80
2023/03/01 07:51:32;;;;;;;25.95;15.63;;;;;;;6.44;46.22;97142.75;5006662;28;20600;-81
2023/03/01 07:54:00;;;;;;;24.13;15.88;;;;;;;6.53;46.01;97139.28;4996547;28;20061;-80
2023/03/01 07:56:28;;;;;;;26.58;17.35;;;;;;;7.15;44.48;97138.69;4993644;28;20057;-80
2023/03/01 07:58:56;;;;;;;26.27;16.65;;;;;;;7.19;44.11;97127.06;4996233;28;20042;-79
2023/03/01 08:01:25;;;;;;;29.45;15.60;;;;;;;7.01;44.38;97133.03;4997262;28;20148;-78
2023/03/01 08:03:53;;;;;;;25.73;17.25;;;;;;;7.14;44.55;97132.69;5004182;28;20068;-79
2023/03/01 08:06:21;;;;;;;24.65;16.10;;;;;;;7.73;43.33;97132.22;5011662;28;20489;-80
2023/03/01 08:08:48;;;;;;;25.65;17.58;;;;;;;8.69;41.75;97139.16;4999930;28;20050;-81
2023/03/01 08:11:16;;;;;;;26.60;15.48;;;;;;;9.67;39.99;97128.97;4998726;28;20049;-81
2023/03/01 08:13:50;;;;;;;24.23;16.23;;;;;;;10.62;36.98;97131.75;5002027;28;20050;-82
2023/03/01 08:16:27;;;;;;;20.85;15.73;;;;;;;11.46;35.51;97134.59;5011722;28;20072;-82
2023/03/01 08:18:56;;;;;;;21.17;15.75;;;;;;;12.08;35.46;97130.19;5012065;28;20049;-81
2023/03/01 08:21:24;;;;;;;24.30;16.63;;;;;;;12.61;34.12;97130.13;5011378;28;20104;-82
2023/03/01 08:23:52;;;;;;;22.23;16.08;;;;;;;12.94;33.25;97125.28;5019807;28;20046;-81
2023/03/01 08:26:22;;;;;;;25.35;17.10;;;;;;;13.45;32.93;97127.09;5010233;28;20046;-81
2023/03/01 08:28:50;;;;;;;22.35;15.93;;;;;;;13.80;31.78;97130.66;5015998;28;20496;-82
2023/03/01 08:31:21;;;;;;;21.95;16.35;;;;;;;14.15;31.28;97125.47;5014619;28;20077;-82
2023/03/01 08:33:55;;;;;;;20.55;15.70;;;;;;;14.58;30.49;97117.47;5004683;28;20058;-82
2023/03/01 08:36:23;;;;;;;19.45;15.43;;;;;;;14.93;30.17;97120.03;5009628;28;20057;-82
2023/03/01 08:38:51;;;;;;;21.02;16.15;;;;;;;15.06;30.00;97112.22;5017799;28;20041;-82
2023/03/01 08:41:19;;;;;;;24.45;16.02;;;;;;;15.10;29.89;97116.06;5007682;28;20508;-82
2023/03/01 08:43:47;;;;;;;20.17;15.95;;;;;;;15.20;30.14;97110.44;5005274;28;20054;-82
2023/03/01 08:46:15;;;;;;;20.25;15.75;;;;;;;15.17;29.29;97109.00;5009487;28;20108;-81
2023/03/01 08:48:43;;;;;;;20.75;14.32;;;;;;;15.14;29.43;97104.16;4996960;28;20046;-80
2023/03/01 08:51:15;;;;;;;18.98;14.85;;;;;;;15.27;28.45;97099.94;5001100;28;20054;-81
2023/03/01 08:53:47;;;;;;;20.88;15.25;;;;;;;15.30;29.82;97102.16;5009097;28;20058;-81
2023/03/01 08:56:15;;;;;;;23.77;15.55;;;;;;;15.37;29.06;97105.63;5022411;28;20072;-81
2023/03/01 08:58:44;;;;;;;19.25;15.43;;;;;;;15.32;28.73;97103.59;5034521;28;20046;-81
2023/03/01 09:01:14;;;;;;;19.92;14.77;;;;;;;15.28;29.20;97105.00;5017997;28;20078;-81
2023/03/01 09:03:43;;;;;;;18.80;14.27;;;;;;;15.15;28.67;97097.91;5015636;28;20058;-81
2023/03/01 09:06:13;;;;;;;18.98;14.50;;;;;;;14.82;28.80;97103.88;5003525;28;20084;-82
2023/03/01 09:08:43;;;;;;;22.05;15.18;;;;;;;14.53;29.21;97101.47;5015935;28;20077;-82
2023/03/01 09:11:13;;;;;;;17.98;14.60;;;;;;;14.31;29.32;97090.25;5016881;28;20476;-82
2023/03/01 09:13:40;;;;;;;19.75;14.43;;;;;;;14.12;29.68;97086.47;5011833;28;20057;-82
2023/03/01 09:16:12;;;;;;;20.15;14.73;;;;;;;14.02;29.78;97092.09;5005535;28;20093;-81
2023/03/01 09:18:40;;;;;;;18.70;14.95;;;;;;;14.11;30.11;97088.31;5004632;28;20125;-82
2023/03/01 09:21:09;;;;;;;18.02;14.68;;;;;;;14.21;30.28;97082.69;5004452;28;20046;-81
2023/03/01 09:23:41;;;;;;;17.98;13.68;;;;;;;14.31;29.96;97077.94;5014032;28;20068;-82
2023/03/01 09:26:10;;;;;;;20.58;15.65;;;;;;;14.31;29.41;97080.56;4999920;28;20054;-82
2023/03/01 09:28:38;;;;;;;19.13;14.27;;;;;;;14.20;29.67;97071.41;4999486;28;20069;-82
2023/03/01 09:31:06;;;;;;;22.20;15.73;;;;;;;14.05;29.07;97085.63;5010762;28;20053;-82
2023/03/01 09:33:35;;;;;;;21.08;15.43;;;;;;;13.68;29.63;97075.28;5005453;28;20050;-82
2023/03/01 09:36:05;;;;;;;19.30;15.27;;;;;;;13.59;29.81;97063.31;4997646;28;20110;-82
2023/03/01 09:38:32;;;;;;;18.48;14.68;;;;;;;13.60;31.20;97057.88;4995167;28;20070;-81
2023/03/01 09:41:03;;;;;;;20.20;14.88;;;;;;;13.61;29.81;97063.94;5007124;28;20046;-81
2023/03/01 09:43:45;;;;;;;18.35;14.70;;;;;;;13.57;29.29;97065.31;5011611;28;20134;-81
2023/03/01 09:46:16;;;;;;;19.73;15.10;;;;;;;13.41;29.52;97069.00;5003364;28;20129;-81
2023/03/01 09:48:49;;;;;;;20.85;15.63;;;;;;;12.82;29.60;97072.59;4995822;28;20046;-81
2023/03/01 09:51:20;;;;;;;20.35;14.82;;;;;;;12.11;30.50;97067.06;5008129;28;20060;-80
2023/03/01 09:53:47;;;;;;;19.35;14.80;;;;;;;11.76;31.43;97066.72;5018674;28;20073;-81
2023/03/01 09:56:21;;;;;;;22.10;16.25;;;;;;;11.68;31.90;97061.59;5008635;28;20440;-80
2023/03/01 09:59:26;;;;;;;21.38;15.18;;;;;;;11.80;31.31;97052.31;5032140;28;20054;-79
2023/03/01 10:02:00;;;;;;;21.95;15.18;;;;;;;12.03;31.33;97054.09;5017702;28;20041;-80
2023/03/01 10:04:35;;;;;;;20.83;15.68;;;;;;;12.07;31.34;97039.66;5009568;28;20085;-81
2023/03/01 10:07:17;;;;;;;19.80;14.85;;;;;;;12.11;31.10;97041.75;5003470;28;20042;-80
2023/03/01 10:09:47;;;;;;;28.35;17.95;;;;;;;12.11;31.47;97043.53;4997210;28;20076;-80
2023/03/01 10:12:18;;;;;;;22.45;15.77;;;;;;;12.13;32.03;97038.94;4996281;28;20077;-80
2023/03/01 10:14:56;;;;;;;19.98;15.38;;;;;;;12.16;31.03;97038.59;4999718;28;20054;-80
2023/03/01 10:17:31;;;;;;;20.10;14.98;;;;;;;12.06;31.22;97038.84;4976202;28;20064;-81
2023/03/01 10:20:14;;;;;;;20.10;15.02;;;;;;;11.74;31.38;97034.72;4998152;28;20137;-80
2023/03/01 10:22:42;;;;;;;18.90;14.65;;;;;;;11.70;32.69;97029.06;5011993;28;20096;-80
2023/03/01 10:25:15;;;;;;;19.00;14.82;;;;;;;12.06;32.09;97025.75;4994348;28;20058;-80
2023/03/01 10:27:50;;;;;;;;;;;;;;;12.49;31.68;97028.53;4997358;28;20510;-80
2023/03/01 10:30:21;;;;;;;20.65;14.60;;;;;;;12.82;31.46;97027.28;4978276;28;19969;-81
2023/03/01 10:32:51;;;;;;;21.45;14.95;;;;;;;12.99;31.42;97024.25;4994279;28;20197;-81
2023/03/01 10:35:21;;;;;;;21.35;15.05;;;;;;;13.31;30.89;97018.72;5004724;28;20046;-81
2023/03/01 10:38:02;;;;;;;20.50;15.07;;;;;;;13.68;29.42;97012.34;5012864;28;20738;-80
2023/03/01 10:40:30;;;;;;;17.60;13.23;;;;;;;13.85;29.94;97007.63;5000785;28;20046;-81
2023/03/01 10:43:02;;;;;;;18.08;13.75;;;;;;;13.94;29.28;97006.47;4994382;28;20065;-79
2023/03/01 10:45:35;;;;;;;17.70;13.63;;;;;;;14.02;29.18;96997.66;5001466;28;20407;-81
2023/03/01 10:48:06;;;;;;;20.05;15.00;;;;;;;14.20;29.29;96991.88;5010375;28;20054;-81
2023/03/01 10:50:33;;;;;;;18.05;13.73;;;;;;;14.45;29.37;96986.94;5006348;28;20133;-80
2023/03/01 10:53:03;;;;;;;18.50;13.73;;;;;;;14.82;28.97;96984.84;5000565;28;20080;-80
2023/03/01 10:55:35;;;;;;;16.83;12.77;;;;;;;15.02;28.67;96977.00;5013664;28;20114;-80
2023/03/01 10:58:19;;;;;;;17.58;13.35;;;;;;;15.34;28.20;96975.41;5008122;28;20052;-80
2023/03/01 11:00:50;;;;;;;17.85;12.40;;;;;;;15.55;27.65;96978.84;4995598;28;20052;-81
2023/03/01 11:03:22;;;;;;;19.48;12.73;;;;;;;15.44;26.95;96969.75;4986680;28;20117;-80
2023/03/01 11:05:57;;;;;;;14.80;11.80;;;;;;;15.31;27.14;96961.88;4998061;28;20508;-80
2023/03/01 11:08:33;;;;;;;14.10;12.18;;;;;;;15.28;27.19;96949.13;4995667;28;20137;-80
2023/03/01 11:11:07;;;;;;;14.07;11.18;;;;;;;15.40;27.30;96953.56;5013396;28;20056;-81
2023/03/01 11:13:38;;;;;;;16.83;12.85;;;;;;;15.57;27.33;96951.34;5008122;28;20475;-81
2023/03/01 11:16:10;;;;;;;17.67;12.52;;;;;;;15.61;27.09;96947.28;4996260;28;20544;-80
2023/03/01 11:18:38;;;;;;;;;;;;;;;15.78;27.38;96944.22;4993401;28;20046;-81
2023/03/01 11:21:16;;;;;;;14.80;11.30;;;;;;;15.79;26.78;96951.94;4989219;28;20193;-80
2023/03/01 11:23:46;;;;;;;16.58;11.73;;;;;;;15.75;26.82;96947.28;4993783;28;20065;-80
2023/03/01 11:26:16;;;;;;;16.00;11.98;;;;;;;15.75;26.81;96947.28;5000782;28;20038;-80
2023/03/01 11:28:51;;;;;;;14.55;11.85;;;;;;;15.85;26.19;96939.75;4995591;28;20126;-81
2023/03/01 11:31:20;;;;;;;16.52;11.82;;;;;;;15.90;26.53;96947.84;5009939;28;20057;-81
2023/03/01 11:33:54;;;;;;;18.13;12.38;;;;;;;16.01;26.46;96941.16;5013222;28;20057;-81
2023/03/01 11:36:31;;;;;;;18.15;11.93;;;;;;;16.26;26.14;96941.25;5019831;28;20046;-79
2023/03/01 11:39:06;;;;;;;12.80;10.55;;;;;;;16.49;25.79;96930.19;5006713;28;20042;-80